createdAt,value
2023-05-14T00:00:54.512Z,91.34
2023-05-14T00:03:58.810Z,92.44
2023-05-14T00:07:01.939Z,93.34
2023-05-14T00:10:06.279Z,93.77
2023-05-14T00:13:09.218Z,94.34
2023-05-14T00:16:12.390Z,94.00
2023-05-14T00:19:15.051Z,94.89
2023-05-14T00:22:18.285Z,93.24
2023-05-14T00:25:21.079Z,93.84
2023-05-14T00:28:23.796Z,93.51
2023-05-14T00:31:26.322Z,93.45
2023-05-14T00:34:29.513Z,93.07
2023-05-14T00:37:32.740Z,92.57
2023-05-14T00:40:37.139Z,92.21
2023-05-14T00:43:39.788Z,92.66
2023-05-14T00:46:43.833Z,92.77
2023-05-14T00:49:47.239Z,92.26
2023-05-14T00:52:50.299Z,92.76
2023-05-14T00:55:53.521Z,92.11
2023-05-14T00:58:56.156Z,92.11
2023-05-14T01:01:59.009Z,91.70
2023-05-14T01:05:02.753Z,91.73
2023-05-14T01:08:32.942Z,92.20
2023-05-14T01:12:12.433Z,92.07
2023-05-14T01:15:21.864Z,92.10
2023-05-14T01:18:27.505Z,91.48
2023-05-14T01:21:44.016Z,92.44
2023-05-14T01:24:46.852Z,92.49
2023-05-14T01:28:11.851Z,92.41
2023-05-14T01:31:25.210Z,92.05
2023-05-14T01:34:31.337Z,91.72
2023-05-14T01:37:37.538Z,92.12
2023-05-14T01:40:42.461Z,91.93
2023-05-14T01:43:45.749Z,92.21
2023-05-14T01:46:48.569Z,92.03
2023-05-14T01:49:52.501Z,92.25
2023-05-14T01:52:56.725Z,91.91
2023-05-14T01:56:01.115Z,92.39
2023-05-14T01:59:03.782Z,91.67
2023-05-14T02:02:06.595Z,91.83
2023-05-14T02:05:11.330Z,91.48
2023-05-14T02:08:13.767Z,91.41
2023-05-14T02:11:16.956Z,92.38
2023-05-14T02:14:20.004Z,90.95
2023-05-14T02:17:23.182Z,91.14
2023-05-14T02:20:26.529Z,90.77
2023-05-14T02:23:40.421Z,91.13
2023-05-14T02:26:44.629Z,91.01
2023-05-14T02:29:47.263Z,91.54
2023-05-14T02:32:50.521Z,91.46
2023-05-14T02:35:53.288Z,91.44
2023-05-14T02:38:56.195Z,91.26
2023-05-14T02:41:58.652Z,91.28
2023-05-14T02:45:02.166Z,91.48
2023-05-14T02:48:06.375Z,91.37
2023-05-14T02:51:09.504Z,91.57
2023-05-14T02:54:11.947Z,91.58
2023-05-14T02:57:14.630Z,91.84
2023-05-14T03:00:18.134Z,91.96
2023-05-14T03:03:21.785Z,91.99
2023-05-14T03:06:24.947Z,92.02
2023-05-14T03:09:28.250Z,92.00
2023-05-14T03:12:30.893Z,92.05
2023-05-14T03:15:33.803Z,92.04
2023-05-14T03:18:36.932Z,92.25
2023-05-14T03:21:40.840Z,91.87
2023-05-14T03:24:43.881Z,91.86
2023-05-14T03:27:46.909Z,91.67
2023-05-14T03:30:50.585Z,91.68
2023-05-14T03:33:53.487Z,91.47
2023-05-14T03:36:57.060Z,91.33
2023-05-14T03:40:00.169Z,90.93
2023-05-14T03:43:02.793Z,90.68
2023-05-14T03:46:05.663Z,90.38
2023-05-14T03:49:09.039Z,90.40
2023-05-14T03:52:13.092Z,90.95
2023-05-14T03:55:15.763Z,90.21
2023-05-14T03:58:18.460Z,90.29
2023-05-14T04:01:21.271Z,89.96
2023-05-14T04:04:24.780Z,89.54
2023-05-14T04:07:28.956Z,89.78
2023-05-14T04:10:32.377Z,89.39
2023-05-14T04:13:35.378Z,88.99
2023-05-14T04:16:41.705Z,89.03
2023-05-14T04:19:46.452Z,89.50
2023-05-14T04:22:49.693Z,88.83
2023-05-14T04:25:52.279Z,88.88
2023-05-14T04:28:56.464Z,88.26
2023-05-14T04:32:02.988Z,88.37
2023-05-14T04:35:07.126Z,88.26
2023-05-14T04:38:11.492Z,88.57
2023-05-14T04:41:14.396Z,88.62
2023-05-14T04:44:17.985Z,88.07
2023-05-14T04:47:24.640Z,88.37
2023-05-14T04:50:27.730Z,87.86
2023-05-14T04:53:31.573Z,87.84
2023-05-14T04:56:34.535Z,87.88
2023-05-14T04:59:40.487Z,87.90
2023-05-14T05:02:43.661Z,87.94
2023-05-14T05:05:47.335Z,87.82
2023-05-14T05:08:50.208Z,87.99
2023-05-14T05:11:53.234Z,87.71
2023-05-14T05:14:58.695Z,88.11
2023-05-14T05:18:03.689Z,87.40
2023-05-14T05:21:10.547Z,87.38
2023-05-14T05:24:16.681Z,86.71
2023-05-14T05:27:21.139Z,87.08
2023-05-14T05:30:25.517Z,86.86
2023-05-14T05:33:30.121Z,86.78
2023-05-14T05:36:33.474Z,87.14
2023-05-14T05:39:36.275Z,87.64
2023-05-14T05:42:43.736Z,87.02
2023-05-14T05:45:49.408Z,88.00
2023-05-14T05:48:59.366Z,87.98
2023-05-14T05:52:04.104Z,88.10
2023-05-14T05:55:09.647Z,88.27
2023-05-14T05:58:19.458Z,88.67
2023-05-14T06:01:30.828Z,88.05
2023-05-14T06:04:34.624Z,89.14
2023-05-14T06:07:47.717Z,89.23
2023-05-14T06:10:52.181Z,89.97
2023-05-14T06:13:55.887Z,89.69
2023-05-14T06:16:59.168Z,89.66
2023-05-14T06:20:02.036Z,90.36
2023-05-14T06:23:12.490Z,90.03
2023-05-14T06:26:15.980Z,90.03
2023-05-14T06:29:19.115Z,89.88
2023-05-14T06:32:22.051Z,90.38
2023-05-14T06:35:29.494Z,90.20
2023-05-14T06:38:41.931Z,90.07
2023-05-14T06:41:46.656Z,90.22
2023-05-14T06:44:51.020Z,89.86
2023-05-14T06:47:57.658Z,90.31
2023-05-14T06:51:01.448Z,90.08
2023-05-14T06:54:07.941Z,89.94
2023-05-14T06:57:14.710Z,89.29
2023-05-14T07:00:24.289Z,89.18
2023-05-14T07:03:30.430Z,89.47
2023-05-14T07:06:39.948Z,89.24
2023-05-14T07:09:46.689Z,88.48
2023-05-14T07:12:50.465Z,88.05
2023-05-14T07:16:00.690Z,87.66
2023-05-14T07:19:13.540Z,87.66
2023-05-14T07:22:19.034Z,87.71
2023-05-14T07:25:22.387Z,88.39
2023-05-14T07:28:26.371Z,88.81
2023-05-14T07:31:34.393Z,88.93
2023-05-14T07:34:38.943Z,87.77
2023-05-14T07:37:53.398Z,87.10
2023-05-14T07:40:56.410Z,87.50
2023-05-14T07:44:04.585Z,88.33
2023-05-14T07:47:12.513Z,88.39
2023-05-14T07:50:26.089Z,88.96
2023-05-14T07:53:33.508Z,87.96
2023-05-14T07:56:41.956Z,89.22
2023-05-14T07:59:52.353Z,89.36
2023-05-14T08:03:00.628Z,89.06
2023-05-14T08:06:19.410Z,88.83
2023-05-14T08:09:22.867Z,88.97
2023-05-14T08:12:38.457Z,88.27
2023-05-14T08:15:55.680Z,88.42
2023-05-14T08:19:00.124Z,88.64
2023-05-14T08:22:03.990Z,88.58
2023-05-14T08:25:13.875Z,88.85
2023-05-14T08:28:20.453Z,87.94
2023-05-14T08:31:24.570Z,88.98
2023-05-14T08:34:31.648Z,88.60
2023-05-14T08:37:35.495Z,90.13
2023-05-14T08:40:39.887Z,89.83
2023-05-14T08:44:12.973Z,89.51
2023-05-14T08:47:31.526Z,89.41
2023-05-14T08:50:43.318Z,88.96
2023-05-14T08:53:49.619Z,89.62
2023-05-14T08:56:57.793Z,89.44
2023-05-14T09:00:12.102Z,89.25
2023-05-14T09:03:22.580Z,89.65
2023-05-14T09:06:43.969Z,88.76
2023-05-14T09:09:51.108Z,90.16
2023-05-14T09:13:01.476Z,90.25
2023-05-14T09:16:05.767Z,89.34
2023-05-14T09:19:09.548Z,90.43
2023-05-14T09:22:19.384Z,89.96
2023-05-14T09:25:28.464Z,90.48
2023-05-14T09:28:42.687Z,89.71
2023-05-14T09:31:59.483Z,89.31
2023-05-14T09:35:12.741Z,89.45
2023-05-14T09:38:24.409Z,89.68
2023-05-14T09:41:28.029Z,89.64
2023-05-14T09:44:33.161Z,91.76
2023-05-14T09:47:53.708Z,90.10
2023-05-14T09:51:06.581Z,89.17
2023-05-14T09:54:10.226Z,89.90
2023-05-14T09:57:31.485Z,89.81
2023-05-14T10:00:38.470Z,92.46
2023-05-14T10:03:42.008Z,90.47
2023-05-14T10:06:52.613Z,91.07
2023-05-14T10:10:09.516Z,92.31
2023-05-14T10:13:32.331Z,90.95
2023-05-14T10:16:49.482Z,92.27
2023-05-14T10:19:58.870Z,92.88
2023-05-14T10:23:09.686Z,91.69
2023-05-14T10:26:16.355Z,91.99
2023-05-14T10:29:39.423Z,91.73
2023-05-14T10:32:49.952Z,93.22
2023-05-14T10:36:14.369Z,90.11
2023-05-14T10:39:18.968Z,91.03
2023-05-14T10:42:36.153Z,91.36
2023-05-14T10:45:57.327Z,91.04
2023-05-14T10:49:10.518Z,90.81
2023-05-14T10:52:20.449Z,90.35
2023-05-14T10:55:34.413Z,90.44
2023-05-14T10:58:40.880Z,90.47
2023-05-14T11:01:46.898Z,90.48
2023-05-14T11:05:00.208Z,89.89
2023-05-14T11:08:14.479Z,89.61
2023-05-14T11:11:26.378Z,89.70
2023-05-14T11:14:47.479Z,89.30
2023-05-14T11:17:53.832Z,90.14
2023-05-14T11:21:05.702Z,89.41
2023-05-14T11:24:09.920Z,89.40
2023-05-14T11:27:23.434Z,90.11
2023-05-14T11:30:32.343Z,90.31
2023-05-14T11:33:48.764Z,89.40
2023-05-14T11:37:00.373Z,90.01
2023-05-14T11:40:20.448Z,89.55
2023-05-14T11:43:35.735Z,90.65
2023-05-14T11:46:55.048Z,90.55
2023-05-14T11:50:19.368Z,91.36
2023-05-14T11:53:32.541Z,92.37
2023-05-14T11:56:37.821Z,91.87
2023-05-14T11:59:45.773Z,93.05
2023-05-14T12:03:03.619Z,93.85
2023-05-14T12:06:13.935Z,93.86
2023-05-14T12:09:24.855Z,95.33
2023-05-14T12:12:48.331Z,95.29
2023-05-14T12:16:18.435Z,96.21
2023-05-14T12:19:29.569Z,96.82
2023-05-14T12:22:35.123Z,97.39
2023-05-14T12:25:53.010Z,97.13
2023-05-14T12:29:01.759Z,96.97
2023-05-14T12:32:16.654Z,97.40
2023-05-14T12:35:28.398Z,97.58
2023-05-14T12:38:35.434Z,98.19
2023-05-14T12:41:52.846Z,98.27
2023-05-14T12:45:05.349Z,99.53
2023-05-14T12:48:15.701Z,99.79
2023-05-14T12:51:32.792Z,98.94
2023-05-14T12:54:47.453Z,100.00
2023-05-14T12:58:04.636Z,100.00
2023-05-14T13:01:08.010Z,100.00
2023-05-14T13:04:15.711Z,100.00
2023-05-14T13:07:25.909Z,100.00
2023-05-14T13:10:37.589Z,100.00
2023-05-14T13:13:44.504Z,100.00
2023-05-14T13:16:51.756Z,100.00
2023-05-14T13:19:56.120Z,100.00
2023-05-14T13:23:12.429Z,100.00
2023-05-14T13:26:24.430Z,100.00
2023-05-14T13:29:41.410Z,100.00
2023-05-14T13:32:48.479Z,100.00
2023-05-14T13:35:58.667Z,100.00
2023-05-14T13:39:02.619Z,100.00
2023-05-14T13:42:08.714Z,100.00
2023-05-14T13:45:18.941Z,100.00
2023-05-14T13:48:26.286Z,100.00
2023-05-14T13:51:54.507Z,100.00
2023-05-14T13:54:58.433Z,100.00
2023-05-14T13:58:10.644Z,100.00
2023-05-14T14:01:20.156Z,100.00
2023-05-14T14:04:30.451Z,100.00
2023-05-14T14:07:35.831Z,100.00
2023-05-14T14:10:42.714Z,100.00
2023-05-14T14:13:52.827Z,100.00
2023-05-14T14:17:04.520Z,100.00
2023-05-14T14:20:13.947Z,100.00
2023-05-14T14:23:19.750Z,100.00
2023-05-14T14:26:37.538Z,100.00
2023-05-14T14:29:41.417Z,100.00
2023-05-14T14:32:48.867Z,100.00
2023-05-14T14:36:03.458Z,100.00
2023-05-14T14:39:19.885Z,100.00
2023-05-14T14:42:26.594Z,100.00
2023-05-14T14:45:31.001Z,100.00
2023-05-14T14:48:39.338Z,100.00
2023-05-14T14:51:44.458Z,100.00
2023-05-14T14:54:51.574Z,100.00
2023-05-14T14:57:54.441Z,100.00
2023-05-14T15:01:08.002Z,100.00
2023-05-14T15:04:12.825Z,100.00
2023-05-14T15:07:22.913Z,100.00
2023-05-14T15:10:43.519Z,100.00
2023-05-14T15:13:52.757Z,100.00
2023-05-14T15:17:01.521Z,100.00
2023-05-14T15:20:13.648Z,100.00
2023-05-14T15:23:29.508Z,100.00
2023-05-14T15:26:39.572Z,100.00
2023-05-14T15:29:43.427Z,100.00
2023-05-14T15:32:47.066Z,100.00
2023-05-14T15:35:51.462Z,100.00
2023-05-14T15:39:03.461Z,100.00
2023-05-14T15:42:08.064Z,100.00
2023-05-14T15:45:14.403Z,100.00
2023-05-14T15:48:20.041Z,100.00
2023-05-14T15:51:28.450Z,100.00
2023-05-14T15:54:37.631Z,100.00
2023-05-14T15:57:49.161Z,100.00
2023-05-14T16:00:54.930Z,100.00
2023-05-14T16:03:59.825Z,100.00
2023-05-14T16:07:11.636Z,100.00
2023-05-14T16:10:21.763Z,100.00
2023-05-14T16:13:27.981Z,100.00
2023-05-14T16:16:38.084Z,100.00
2023-05-14T16:19:43.623Z,100.00
2023-05-14T16:23:05.870Z,100.00
2023-05-14T16:26:17.540Z,100.00
2023-05-14T16:29:23.014Z,100.00
2023-05-14T16:32:32.773Z,100.00
2023-05-14T16:35:41.638Z,100.00
2023-05-14T16:39:06.782Z,100.00
2023-05-14T16:42:28.335Z,100.00
2023-05-14T16:45:47.365Z,100.00
2023-05-14T16:49:02.589Z,100.00
2023-05-14T16:52:15.344Z,100.00
2023-05-14T16:55:25.503Z,100.00
2023-05-14T16:58:40.651Z,100.00
2023-05-14T17:01:57.476Z,100.00
2023-05-14T17:05:07.484Z,100.00
2023-05-14T17:08:19.384Z,100.00
2023-05-14T17:11:26.425Z,100.00
2023-05-14T17:14:47.355Z,100.00
2023-05-14T17:18:05.498Z,100.00
2023-05-14T17:21:16.840Z,100.00
2023-05-14T17:24:24.415Z,100.00
2023-05-14T17:27:37.448Z,100.00
2023-05-14T17:30:59.423Z,100.00
2023-05-14T17:34:10.712Z,100.00
2023-05-14T17:37:24.619Z,100.00
2023-05-14T17:40:28.600Z,100.00
2023-05-14T17:43:37.428Z,100.00
2023-05-14T17:46:50.065Z,100.00
2023-05-14T17:50:05.417Z,100.00
2023-05-14T17:53:15.347Z,100.00
2023-05-14T17:56:20.419Z,100.00
2023-05-14T17:59:29.444Z,100.00
2023-05-14T18:02:35.441Z,100.00
2023-05-14T18:05:39.703Z,100.00
2023-05-14T18:08:45.405Z,100.00
2023-05-14T18:12:08.336Z,100.00
2023-05-14T18:15:22.464Z,100.00
2023-05-14T18:18:35.329Z,100.00
2023-05-14T18:21:38.758Z,100.00
2023-05-14T18:24:51.577Z,100.00
2023-05-14T18:27:57.717Z,100.00
2023-05-14T18:31:12.589Z,100.00
2023-05-14T18:34:19.986Z,100.00
2023-05-14T18:37:24.449Z,100.00
2023-05-14T18:40:46.448Z,100.00
2023-05-14T18:43:58.109Z,100.00
2023-05-14T18:47:21.395Z,100.00
2023-05-14T18:50:33.484Z,100.00
2023-05-14T18:53:38.361Z,100.00
2023-05-14T18:56:47.777Z,100.00
2023-05-14T18:59:59.630Z,100.00
2023-05-14T19:03:08.072Z,100.00
2023-05-14T19:06:18.945Z,100.00
2023-05-14T19:09:27.685Z,100.00
2023-05-14T19:12:41.564Z,100.00
2023-05-14T19:15:51.765Z,100.00
2023-05-14T19:18:57.690Z,100.00
2023-05-14T19:22:04.690Z,100.00
2023-05-14T19:25:11.642Z,100.00
2023-05-14T19:28:16.824Z,100.00
2023-05-14T19:31:19.910Z,100.00
2023-05-14T19:34:42.445Z,100.00
2023-05-14T19:37:47.439Z,100.00
2023-05-14T19:40:51.324Z,100.00
2023-05-14T19:43:56.278Z,100.00
2023-05-14T19:47:01.622Z,100.00
2023-05-14T19:50:09.616Z,100.00
2023-05-14T19:53:16.459Z,100.00
2023-05-14T19:56:28.433Z,100.00
2023-05-14T19:59:44.678Z,100.00
2023-05-14T20:02:47.959Z,100.00
2023-05-14T20:05:56.587Z,100.00
2023-05-14T20:09:01.935Z,100.00
2023-05-14T20:12:05.580Z,100.00
2023-05-14T20:15:11.017Z,100.00
2023-05-14T20:18:19.641Z,100.00
2023-05-14T20:21:30.799Z,100.00
2023-05-14T20:24:37.883Z,100.00
2023-05-14T20:27:46.812Z,100.00
2023-05-14T20:30:49.886Z,100.00
2023-05-14T20:33:54.898Z,100.00
2023-05-14T20:36:58.362Z,100.00
2023-05-14T20:40:06.741Z,100.00
2023-05-14T20:43:09.844Z,100.00
2023-05-14T20:46:20.797Z,100.00
2023-05-14T20:49:25.780Z,100.00
2023-05-14T20:52:29.110Z,100.00
2023-05-14T20:55:33.607Z,100.00
2023-05-14T20:58:36.313Z,100.00
2023-05-14T21:01:39.124Z,100.00
2023-05-14T21:04:42.167Z,100.00
2023-05-14T21:07:48.820Z,100.00
2023-05-14T21:10:54.962Z,100.00
2023-05-14T21:13:58.405Z,100.00
2023-05-14T21:17:00.982Z,100.00
2023-05-14T21:20:07.578Z,100.00
2023-05-14T21:23:12.828Z,100.00
2023-05-14T21:26:15.928Z,100.00
2023-05-14T21:29:22.576Z,100.00
2023-05-14T21:32:31.386Z,100.00
2023-05-14T21:35:34.976Z,100.00
2023-05-14T21:38:38.731Z,100.00
2023-05-14T21:41:41.699Z,100.00
2023-05-14T21:44:45.027Z,100.00
2023-05-14T21:47:48.632Z,100.00
2023-05-14T21:50:54.379Z,100.00
2023-05-14T21:54:01.521Z,100.00
2023-05-14T21:57:05.052Z,100.00
2023-05-14T22:00:13.070Z,100.00
2023-05-14T22:03:19.601Z,100.00
2023-05-14T22:06:23.815Z,100.00
2023-05-14T22:09:26.725Z,100.00
2023-05-14T22:12:29.442Z,100.00
2023-05-14T22:15:38.811Z,100.00
2023-05-14T22:18:42.736Z,100.00
2023-05-14T22:21:46.530Z,100.00
2023-05-14T22:24:49.826Z,100.00
2023-05-14T22:27:53.098Z,100.00
2023-05-14T22:30:56.548Z,100.00
2023-05-14T22:34:06.431Z,100.00
2023-05-14T22:37:09.467Z,100.00
2023-05-14T22:40:13.686Z,100.00
2023-05-14T22:43:16.164Z,100.00
2023-05-14T22:46:22.894Z,100.00
2023-05-14T22:49:26.488Z,100.00
2023-05-14T22:52:29.385Z,100.00
2023-05-14T22:55:31.824Z,100.00
2023-05-14T22:58:34.921Z,100.00
2023-05-14T23:01:38.094Z,100.00
2023-05-14T23:04:40.864Z,100.00
2023-05-14T23:07:43.789Z,100.00
2023-05-14T23:10:46.694Z,100.00
2023-05-14T23:13:49.462Z,100.00
2023-05-14T23:16:52.194Z,100.00
2023-05-14T23:19:54.929Z,100.00
2023-05-14T23:22:57.748Z,100.00
2023-05-14T23:26:00.399Z,100.00
2023-05-14T23:29:05.356Z,100.00
2023-05-14T23:32:09.115Z,100.00
2023-05-14T23:35:11.964Z,100.00
2023-05-14T23:38:14.737Z,100.00
2023-05-14T23:41:17.445Z,100.00
2023-05-14T23:44:20.650Z,100.00
2023-05-14T23:47:23.628Z,100.00
2023-05-14T23:50:26.952Z,100.00
2023-05-14T23:53:29.616Z,100.00
2023-05-14T23:56:32.214Z,100.00
2023-05-14T23:59:35.679Z,100.00
